sensor_id;sensor_type;location;lat;lon;timestamp;pressure;altitude;pressure_sealevel;temperature;humidity
85153;BME280;75520;43.358;19.362;2024-01-27T00:01:48;93565.44;;;-2.02;91.66
85153;BME280;75520;43.358;19.362;2024-01-27T00:04:13;93616.03;;;-1.76;92.37
85153;BME280;75520;43.358;19.362;2024-01-27T00:06:39;93583.53;;;-1.90;92.13
85153;BME280;75520;43.358;19.362;2024-01-27T00:09:04;93585.53;;;-1.97;91.73
85153;BME280;75520;43.358;19.362;2024-01-27T00:11:32;93608.22;;;-1.76;91.89
85153;BME280;75520;43.358;19.362;2024-01-27T00:13:57;93585.44;;;-1.85;91.57
85153;BME280;75520;43.358;19.362;2024-01-27T00:16:24;93604.59;;;-1.75;91.19
85153;BME280;75520;43.358;19.362;2024-01-27T00:18:50;93563.34;;;-2.05;92.42
85153;BME280;75520;43.358;19.362;2024-01-27T00:21:15;93627.81;;;-1.68;93.09
85153;BME280;75520;43.358;19.362;2024-01-27T00:23:41;93594.50;;;-1.88;93.73
85153;BME280;75520;43.358;19.362;2024-01-27T00:26:06;93622.31;;;-1.72;92.47
85153;BME280;75520;43.358;19.362;2024-01-27T00:28:32;93626.00;;;-1.68;92.99
85153;BME280;75520;43.358;19.362;2024-01-27T00:30:57;93630.97;;;-1.66;93.01
85153;BME280;75520;43.358;19.362;2024-01-27T00:33:23;93638.47;;;-1.70;93.69
85153;BME280;75520;43.358;19.362;2024-01-27T00:35:48;93635.59;;;-1.73;93.05
85153;BME280;75520;43.358;19.362;2024-01-27T00:38:14;93647.94;;;-1.64;94.39
85153;BME280;75520;43.358;19.362;2024-01-27T00:40:40;93646.88;;;-1.63;95.34
85153;BME280;75520;43.358;19.362;2024-01-27T00:43:05;93647.63;;;-1.67;97.30
85153;BME280;75520;43.358;19.362;2024-01-27T00:45:31;93647.63;;;-1.67;97.46
85153;BME280;75520;43.358;19.362;2024-01-27T00:47:57;93637.31;;;-1.79;95.59
85153;BME280;75520;43.358;19.362;2024-01-27T00:50:23;93663.00;;;-1.66;94.25
85153;BME280;75520;43.358;19.362;2024-01-27T00:52:48;93673.47;;;-1.61;92.84
85153;BME280;75520;43.358;19.362;2024-01-27T00:55:14;93661.66;;;-1.68;92.60
85153;BME280;75520;43.358;19.362;2024-01-27T00:57:40;93682.69;;;-1.53;92.36
85153;BME280;75520;43.358;19.362;2024-01-27T01:00:09;93692.63;;;-1.50;93.14
85153;BME280;75520;43.358;19.362;2024-01-27T01:02:35;93678.44;;;-1.59;92.03
85153;BME280;75520;43.358;19.362;2024-01-27T01:05:01;93697.13;;;-1.45;92.16
85153;BME280;75520;43.358;19.362;2024-01-27T01:07:32;93678.91;;;-1.62;91.39
85153;BME280;75520;43.358;19.362;2024-01-27T01:09:58;93713.59;;;-1.40;91.59
85153;BME280;75520;43.358;19.362;2024-01-27T01:12:23;93708.38;;;-1.40;92.91
85153;BME280;75520;43.358;19.362;2024-01-27T01:14:51;93700.09;;;-1.37;92.22
85153;BME280;75520;43.358;19.362;2024-01-27T01:17:16;93704.03;;;-1.34;93.50
85153;BME280;75520;43.358;19.362;2024-01-27T01:19:42;93694.34;;;-1.39;93.22
85153;BME280;75520;43.358;19.362;2024-01-27T01:22:07;93685.13;;;-1.46;93.89
85153;BME280;75520;43.358;19.362;2024-01-27T01:24:33;93715.56;;;-1.30;93.95
85153;BME280;75520;43.358;19.362;2024-01-27T01:26:59;93662.47;;;-1.68;94.34
85153;BME280;75520;43.358;19.362;2024-01-27T01:29:25;93722.81;;;-1.32;93.96
85153;BME280;75520;43.358;19.362;2024-01-27T01:31:51;93714.56;;;-1.46;93.20
85153;BME280;75520;43.358;19.362;2024-01-27T01:34:16;93691.47;;;-1.59;92.88
85153;BME280;75520;43.358;19.362;2024-01-27T01:36:42;93719.28;;;-1.43;91.72
85153;BME280;75520;43.358;19.362;2024-01-27T01:39:10;93748.16;;;-1.28;93.78
85153;BME280;75520;43.358;19.362;2024-01-27T01:41:35;93750.53;;;-1.26;92.78
85153;BME280;75520;43.358;19.362;2024-01-27T01:44:01;93744.28;;;-1.25;94.88
85153;BME280;75520;43.358;19.362;2024-01-27T01:46:26;93739.84;;;-1.25;95.49
85153;BME280;75520;43.358;19.362;2024-01-27T01:48:53;93737.50;;;-1.26;94.48
85153;BME280;75520;43.358;19.362;2024-01-27T01:51:19;93698.75;;;-1.39;93.47
85153;BME280;75520;43.358;19.362;2024-01-27T01:53:48;93674.16;;;-1.48;94.75
85153;BME280;75520;43.358;19.362;2024-01-27T01:56:15;93724.28;;;-1.20;95.46
85153;BME280;75520;43.358;19.362;2024-01-27T01:58:40;93711.50;;;-1.21;94.93
85153;BME280;75520;43.358;19.362;2024-01-27T02:01:06;93692.34;;;-1.32;93.36
85153;BME280;75520;43.358;19.362;2024-01-27T02:03:32;93714.69;;;-1.14;92.53
85153;BME280;75520;43.358;19.362;2024-01-27T02:05:57;93704.28;;;-1.14;93.95
85153;BME280;75520;43.358;19.362;2024-01-27T02:08:23;93698.84;;;-1.13;92.53
85153;BME280;75520;43.358;19.362;2024-01-27T02:10:49;93696.53;;;-1.09;95.55
85153;BME280;75520;43.358;19.362;2024-01-27T02:13:21;93663.25;;;-1.24;95.55
85153;BME280;75520;43.358;19.362;2024-01-27T02:15:49;93694.41;;;-1.12;97.77
85153;BME280;75520;43.358;19.362;2024-01-27T02:18:16;93671.59;;;-1.27;96.76
85153;BME280;75520;43.358;19.362;2024-01-27T02:20:42;93671.19;;;-1.14;95.00
85153;BME280;75520;43.358;19.362;2024-01-27T02:23:08;93638.97;;;-1.29;93.45
85153;BME280;75520;43.358;19.362;2024-01-27T02:25:35;93669.47;;;-1.08;96.46
85153;BME280;75520;43.358;19.362;2024-01-27T02:28:01;93664.00;;;-1.06;94.77
85153;BME280;75520;43.358;19.362;2024-01-27T02:30:29;93651.25;;;-1.03;94.04
85153;BME280;75520;43.358;19.362;2024-01-27T02:32:56;93647.16;;;-0.99;92.82
85153;BME280;75520;43.358;19.362;2024-01-27T02:35:24;93641.94;;;-0.99;93.88
85153;BME280;75520;43.358;19.362;2024-01-27T02:37:50;93603.66;;;-1.20;92.89
85153;BME280;75520;43.358;19.362;2024-01-27T02:40:15;93643.50;;;-0.98;96.24
85153;BME280;75520;43.358;19.362;2024-01-27T02:42:41;93623.34;;;-1.07;95.90
85153;BME280;75520;43.358;19.362;2024-01-27T02:45:10;93598.22;;;-1.19;94.45
85153;BME280;75520;43.358;19.362;2024-01-27T02:47:37;93609.28;;;-1.06;93.25
85153;BME280;75520;43.358;19.362;2024-01-27T02:50:02;93608.53;;;-1.02;93.09
85153;BME280;75520;43.358;19.362;2024-01-27T02:52:29;93623.13;;;-1.01;94.07
85153;BME280;75520;43.358;19.362;2024-01-27T02:54:55;93617.94;;;-1.01;93.66
85153;BME280;75520;43.358;19.362;2024-01-27T02:57:21;93563.63;;;-1.36;95.56
85153;BME280;75520;43.358;19.362;2024-01-27T02:59:46;93591.66;;;-1.21;93.69
85153;BME280;75520;43.358;19.362;2024-01-27T03:02:12;93616.81;;;-1.05;93.76
85153;BME280;75520;43.358;19.362;2024-01-27T03:04:37;93583.28;;;-1.23;94.06
85153;BME280;75520;43.358;19.362;2024-01-27T03:07:03;93607.47;;;-1.06;95.57
85153;BME280;75520;43.358;19.362;2024-01-27T03:09:30;93604.84;;;-1.06;97.30
85153;BME280;75520;43.358;19.362;2024-01-27T03:11:56;93603.81;;;-1.05;97.82
85153;BME280;75520;43.358;19.362;2024-01-27T03:14:21;93613.72;;;-1.07;98.85
85153;BME280;75520;43.358;19.362;2024-01-27T03:16:47;93610.25;;;-1.13;98.63
85153;BME280;75520;43.358;19.362;2024-01-27T03:19:13;93589.97;;;-1.32;99.32
85153;BME280;75520;43.358;19.362;2024-01-27T03:21:38;93602.06;;;-1.21;97.34
85153;BME280;75520;43.358;19.362;2024-01-27T03:24:04;93568.53;;;-1.39;97.49
85153;BME280;75520;43.358;19.362;2024-01-27T03:26:29;93590.03;;;-1.27;96.40
85153;BME280;75520;43.358;19.362;2024-01-27T03:28:55;93552.59;;;-1.43;95.88
85153;BME280;75520;43.358;19.362;2024-01-27T03:31:20;93563.38;;;-1.34;94.34
85153;BME280;75520;43.358;19.362;2024-01-27T03:33:46;93590.16;;;-1.17;95.83
85153;BME280;75520;43.358;19.362;2024-01-27T03:36:13;93576.78;;;-1.26;94.77
85153;BME280;75520;43.358;19.362;2024-01-27T03:38:40;93564.47;;;-1.30;94.41
85153;BME280;75520;43.358;19.362;2024-01-27T03:41:06;93568.34;;;-1.33;94.13
85153;BME280;75520;43.358;19.362;2024-01-27T03:43:33;93616.47;;;-1.14;96.24
85153;BME280;75520;43.358;19.362;2024-01-27T03:45:58;93606.03;;;-1.19;95.83
85153;BME280;75520;43.358;19.362;2024-01-27T03:48:24;93622.25;;;-1.12;96.98
85153;BME280;75520;43.358;19.362;2024-01-27T03:50:50;93612.06;;;-1.13;96.59
85153;BME280;75520;43.358;19.362;2024-01-27T03:53:15;93613.19;;;-1.04;95.44
85153;BME280;75520;43.358;19.362;2024-01-27T03:55:41;93614.28;;;-1.00;97.66
85153;BME280;75520;43.358;19.362;2024-01-27T03:58:06;93628.66;;;-0.97;97.06
85153;BME280;75520;43.358;19.362;2024-01-27T04:00:32;93619.97;;;-1.03;95.65
85153;BME280;75520;43.358;19.362;2024-01-27T04:03:01;93634.38;;;-0.95;94.79
85153;BME280;75520;43.358;19.362;2024-01-27T04:05:29;93637.78;;;-0.95;95.78
85153;BME280;75520;43.358;19.362;2024-01-27T04:07:55;93640.94;;;-0.93;95.38
85153;BME280;75520;43.358;19.362;2024-01-27T04:10:21;93655.56;;;-0.92;96.76
85153;BME280;75520;43.358;19.362;2024-01-27T04:12:46;93663.59;;;-0.93;96.96
85153;BME280;75520;43.358;19.362;2024-01-27T04:15:12;93673.31;;;-0.89;97.94
85153;BME280;75520;43.358;19.362;2024-01-27T04:17:37;93687.13;;;-0.88;99.57
85153;BME280;75520;43.358;19.362;2024-01-27T04:20:03;93681.19;;;-0.84;97.49
85153;BME280;75520;43.358;19.362;2024-01-27T04:22:30;93672.09;;;-0.81;97.85
85153;BME280;75520;43.358;19.362;2024-01-27T04:24:56;93697.97;;;-0.75;97.73
85153;BME280;75520;43.358;19.362;2024-01-27T04:27:21;93711.78;;;-0.74;98.98
85153;BME280;75520;43.358;19.362;2024-01-27T04:29:47;93706.56;;;-0.74;97.05
85153;BME280;75520;43.358;19.362;2024-01-27T04:32:13;93718.34;;;-0.71;97.91
85153;BME280;75520;43.358;19.362;2024-01-27T04:34:38;93741.56;;;-0.70;99.08
85153;BME280;75520;43.358;19.362;2024-01-27T04:37:05;93720.22;;;-0.89;100.00
85153;BME280;75520;43.358;19.362;2024-01-27T04:39:30;93771.81;;;-0.69;100.00
85153;BME280;75520;43.358;19.362;2024-01-27T04:41:56;93755.81;;;-0.78;99.39
85153;BME280;75520;43.358;19.362;2024-01-27T04:44:21;93784.13;;;-0.64;98.24
85153;BME280;75520;43.358;19.362;2024-01-27T04:46:47;93801.59;;;-0.65;99.99
85153;BME280;75520;43.358;19.362;2024-01-27T04:49:14;93771.16;;;-0.59;100.00
85153;BME280;75520;43.358;19.362;2024-01-27T04:51:40;93768.31;;;-0.58;100.00
85153;BME280;75520;43.358;19.362;2024-01-27T04:54:05;93789.56;;;-0.44;100.00
85153;BME280;75520;43.358;19.362;2024-01-27T04:56:31;93795.03;;;-0.46;100.00
85153;BME280;75520;43.358;19.362;2024-01-27T04:58:57;93820.94;;;-0.39;100.00
85153;BME280;75520;43.358;19.362;2024-01-27T05:01:22;93816.25;;;-0.37;100.00
85153;BME280;75520;43.358;19.362;2024-01-27T05:03:48;93794.06;;;-0.61;100.00
85153;BME280;75520;43.358;19.362;2024-01-27T05:06:13;93828.09;;;-0.51;100.00
85153;BME280;75520;43.358;19.362;2024-01-27T05:08:39;93795.53;;;-0.49;100.00
85153;BME280;75520;43.358;19.362;2024-01-27T05:11:04;93828.38;;;-0.26;100.00
85153;BME280;75520;43.358;19.362;2024-01-27T05:13:31;93825.38;;;-0.13;100.00
85153;BME280;75520;43.358;19.362;2024-01-27T05:15:56;93841.19;;;0.03;100.00
85153;BME280;75520;43.358;19.362;2024-01-27T05:18:22;93839.38;;;0.30;100.00
85153;BME280;75520;43.358;19.362;2024-01-27T05:20:47;93854.44;;;0.50;100.00
85153;BME280;75520;43.358;19.362;2024-01-27T05:23:13;93863.91;;;0.56;100.00
85153;BME280;75520;43.358;19.362;2024-01-27T05:25:38;93842.25;;;0.60;100.00
85153;BME280;75520;43.358;19.362;2024-01-27T05:28:04;93847.06;;;0.79;100.00
85153;BME280;75520;43.358;19.362;2024-01-27T05:30:33;93840.34;;;0.88;99.11
85153;BME280;75520;43.358;19.362;2024-01-27T05:32:59;93838.03;;;0.96;98.79
85153;BME280;75520;43.358;19.362;2024-01-27T05:35:25;93848.56;;;1.01;98.07
85153;BME280;75520;43.358;19.362;2024-01-27T05:37:50;93857.84;;;0.87;95.66
85153;BME280;75520;43.358;19.362;2024-01-27T05:40:17;93828.59;;;0.53;93.50
85153;BME280;75520;43.358;19.362;2024-01-27T05:42:42;93859.75;;;0.60;94.46
85153;BME280;75520;43.358;19.362;2024-01-27T05:45:10;93868.28;;;0.50;95.54
85153;BME280;75520;43.358;19.362;2024-01-27T05:47:35;93864.53;;;0.41;94.30
85153;BME280;75520;43.358;19.362;2024-01-27T05:50:01;93867.84;;;0.31;96.07
85153;BME280;75520;43.358;19.362;2024-01-27T05:52:27;93885.31;;;0.26;95.40
85153;BME280;75520;43.358;19.362;2024-01-27T05:54:54;93894.09;;;0.20;95.73
85153;BME280;75520;43.358;19.362;2024-01-27T05:57:19;93903.97;;;0.13;100.00
85153;BME280;75520;43.358;19.362;2024-01-27T05:59:45;93895.22;;;0.02;100.00
85153;BME280;75520;43.358;19.362;2024-01-27T06:02:11;93903.97;;;-0.09;100.00
85153;BME280;75520;43.358;19.362;2024-01-27T06:04:36;93875.66;;;-0.44;99.37
85153;BME280;75520;43.358;19.362;2024-01-27T06:07:02;93929.19;;;-0.20;100.00
85153;BME280;75520;43.358;19.362;2024-01-27T06:09:27;93917.09;;;-0.26;99.25
85153;BME280;75520;43.358;19.362;2024-01-27T06:11:53;93924.88;;;-0.31;98.18
85153;BME280;75520;43.358;19.362;2024-01-27T06:14:18;93923.22;;;-0.37;99.56
85153;BME280;75520;43.358;19.362;2024-01-27T06:16:44;93927.63;;;-0.38;100.00
85153;BME280;75520;43.358;19.362;2024-01-27T06:19:09;93932.78;;;-0.43;100.00
85153;BME280;75520;43.358;19.362;2024-01-27T06:21:35;93887.72;;;-0.77;100.00
85153;BME280;75520;43.358;19.362;2024-01-27T06:24:00;93894.28;;;-0.74;100.00
85153;BME280;75520;43.358;19.362;2024-01-27T06:26:26;93886.03;;;-0.88;100.00
85153;BME280;75520;43.358;19.362;2024-01-27T06:28:51;93904.03;;;-0.86;100.00
85153;BME280;75520;43.358;19.362;2024-01-27T06:31:17;93931.13;;;-0.70;100.00
85153;BME280;75520;43.358;19.362;2024-01-27T06:33:42;93933.16;;;-0.72;100.00
85153;BME280;75520;43.358;19.362;2024-01-27T06:36:08;93935.22;;;-0.75;100.00
85153;BME280;75520;43.358;19.362;2024-01-27T06:38:36;93920.22;;;-0.84;100.00
85153;BME280;75520;43.358;19.362;2024-01-27T06:41:03;93943.03;;;-0.75;100.00
85153;BME280;75520;43.358;19.362;2024-01-27T06:43:28;93941.94;;;-0.79;100.00
85153;BME280;75520;43.358;19.362;2024-01-27T06:45:54;93936.09;;;-0.86;100.00
85153;BME280;75520;43.358;19.362;2024-01-27T06:48:21;93944.56;;;-0.79;100.00
85153;BME280;75520;43.358;19.362;2024-01-27T06:50:46;93949.03;;;-0.74;100.00
85153;BME280;75520;43.358;19.362;2024-01-27T06:53:12;93935.56;;;-0.88;100.00
85153;BME280;75520;43.358;19.362;2024-01-27T06:55:37;93967.06;;;-0.72;100.00
85153;BME280;75520;43.358;19.362;2024-01-27T06:58:03;93952.84;;;-0.82;100.00
85153;BME280;75520;43.358;19.362;2024-01-27T07:00:28;93971.72;;;-0.75;100.00
85153;BME280;75520;43.358;19.362;2024-01-27T07:02:54;93973.78;;;-0.77;100.00
85153;BME280;75520;43.358;19.362;2024-01-27T07:05:21;93981.69;;;-0.71;100.00
85153;BME280;75520;43.358;19.362;2024-01-27T07:07:47;93983.72;;;-0.73;100.00
85153;BME280;75520;43.358;19.362;2024-01-27T07:10:13;93949.06;;;-0.91;100.00
85153;BME280;75520;43.358;19.362;2024-01-27T07:12:38;93956.47;;;-0.83;100.00
85153;BME280;75520;43.358;19.362;2024-01-27T07:15:04;93995.44;;;-0.59;100.00
85153;BME280;75520;43.358;19.362;2024-01-27T07:17:29;93993.63;;;-0.59;100.00
85153;BME280;75520;43.358;19.362;2024-01-27T07:19:55;93989.25;;;-0.53;100.00
85153;BME280;75520;43.358;19.362;2024-01-27T07:22:21;94008.91;;;-0.46;100.00
85153;BME280;75520;43.358;19.362;2024-01-27T07:24:47;94005.53;;;-0.46;100.00
85153;BME280;75520;43.358;19.362;2024-01-27T07:27:16;93996.28;;;-0.54;100.00
85153;BME280;75520;43.358;19.362;2024-01-27T07:29:41;94021.69;;;-0.27;100.00
85153;BME280;75520;43.358;19.362;2024-01-27T07:32:07;94018.75;;;-0.14;100.00
85153;BME280;75520;43.358;19.362;2024-01-27T07:34:42;94016.06;;;-0.03;100.00
85153;BME280;75520;43.358;19.362;2024-01-27T07:37:07;94018.84;;;0.13;100.00
85153;BME280;75520;43.358;19.362;2024-01-27T07:39:33;94018.97;;;0.23;100.00
85153;BME280;75520;43.358;19.362;2024-01-27T07:41:59;94018.84;;;0.34;100.00
85153;BME280;75520;43.358;19.362;2024-01-27T07:44:24;93984.53;;;0.26;100.00
85153;BME280;75520;43.358;19.362;2024-01-27T07:46:50;93994.59;;;0.39;100.00
85153;BME280;75520;43.358;19.362;2024-01-27T07:49:15;94017.63;;;0.64;100.00
85153;BME280;75520;43.358;19.362;2024-01-27T07:51:41;94026.34;;;0.74;100.00
85153;BME280;75520;43.358;19.362;2024-01-27T07:54:06;94004.81;;;0.67;100.00
85153;BME280;75520;43.358;19.362;2024-01-27T07:56:33;94026.25;;;0.91;100.00
85153;BME280;75520;43.358;19.362;2024-01-27T07:58:58;93996.84;;;0.79;100.00
85153;BME280;75520;43.358;19.362;2024-01-27T08:01:23;93999.81;;;0.88;100.00
85153;BME280;75520;43.358;19.362;2024-01-27T08:03:49;94036.66;;;1.13;98.37
85153;BME280;75520;43.358;19.362;2024-01-27T08:06:18;94010.53;;;1.18;90.50
85153;BME280;75520;43.358;19.362;2024-01-27T08:08:48;94042.75;;;1.56;90.89
85153;BME280;75520;43.358;19.362;2024-01-27T08:11:14;94043.13;;;1.69;90.91
85153;BME280;75520;43.358;19.362;2024-01-27T08:13:41;94029.78;;;1.71;90.38
85153;BME280;75520;43.358;19.362;2024-01-27T08:16:07;94020.94;;;1.77;90.69
85153;BME280;75520;43.358;19.362;2024-01-27T08:18:35;94037.19;;;2.26;88.67
85153;BME280;75520;43.358;19.362;2024-01-27T08:21:03;93987.91;;;2.18;90.77
85153;BME280;75520;43.358;19.362;2024-01-27T08:23:29;94046.25;;;2.66;84.54
85153;BME280;75520;43.358;19.362;2024-01-27T08:25:54;94016.31;;;2.51;85.97
85153;BME280;75520;43.358;19.362;2024-01-27T08:28:20;94033.94;;;2.66;85.00
85153;BME280;75520;43.358;19.362;2024-01-27T08:30:45;94044.94;;;2.63;84.53
85153;BME280;75520;43.358;19.362;2024-01-27T08:33:11;94050.44;;;2.56;85.17
85153;BME280;75520;43.358;19.362;2024-01-27T08:35:36;94040.19;;;2.60;84.42
85153;BME280;75520;43.358;19.362;2024-01-27T08:38:02;94045.81;;;2.89;85.11
85153;BME280;75520;43.358;19.362;2024-01-27T08:40:29;94054.03;;;3.23;86.82
85153;BME280;75520;43.358;19.362;2024-01-27T08:42:54;94034.31;;;3.20;85.32
85153;BME280;75520;43.358;19.362;2024-01-27T08:45:20;94042.50;;;3.54;84.59
85153;BME280;75520;43.358;19.362;2024-01-27T08:47:45;94073.50;;;3.83;82.70
85153;BME280;75520;43.358;19.362;2024-01-27T08:50:11;94081.88;;;4.00;82.55
85153;BME280;75520;43.358;19.362;2024-01-27T08:52:36;94081.59;;;3.96;71.69
85153;BME280;75520;43.358;19.362;2024-01-27T08:55:02;94067.66;;;4.06;77.02
85153;BME280;75520;43.358;19.362;2024-01-27T08:57:28;94052.41;;;4.28;76.27
85153;BME280;75520;43.358;19.362;2024-01-27T08:59:53;94083.28;;;4.72;78.61
85153;BME280;75520;43.358;19.362;2024-01-27T09:02:19;94065.09;;;4.85;77.71
85153;BME280;75520;43.358;19.362;2024-01-27T09:04:44;94010.56;;;4.42;75.45
85153;BME280;75520;43.358;19.362;2024-01-27T09:07:11;94090.38;;;4.71;73.47
85153;BME280;75520;43.358;19.362;2024-01-27T09:09:37;94093.84;;;4.67;73.82
85153;BME280;75520;43.358;19.362;2024-01-27T09:12:05;94084.88;;;4.63;73.65
85153;BME280;75520;43.358;19.362;2024-01-27T09:14:30;94074.94;;;4.60;72.93
85153;BME280;75520;43.358;19.362;2024-01-27T09:16:56;94097.22;;;4.77;71.97
85153;BME280;75520;43.358;19.362;2024-01-27T09:19:21;94094.84;;;4.76;72.16
85153;BME280;75520;43.358;19.362;2024-01-27T09:21:47;94084.69;;;4.49;72.72
85153;BME280;75520;43.358;19.362;2024-01-27T09:24:12;94116.97;;;4.65;72.27
85153;BME280;75520;43.358;19.362;2024-01-27T09:26:38;94104.66;;;4.45;69.36
85153;BME280;75520;43.358;19.362;2024-01-27T09:29:03;94126.22;;;4.47;68.90
85153;BME280;75520;43.358;19.362;2024-01-27T09:31:29;94096.03;;;4.29;71.15
85153;BME280;75520;43.358;19.362;2024-01-27T09:33:55;94123.88;;;4.51;69.96
85153;BME280;75520;43.358;19.362;2024-01-27T09:36:21;94082.34;;;4.27;68.18
85153;BME280;75520;43.358;19.362;2024-01-27T09:38:46;94121.16;;;4.76;66.02
85153;BME280;75520;43.358;19.362;2024-01-27T09:41:15;94114.00;;;4.92;65.29
85153;BME280;75520;43.358;19.362;2024-01-27T09:43:43;94122.66;;;4.97;67.42
85153;BME280;75520;43.358;19.362;2024-01-27T09:46:12;94116.59;;;5.02;66.04
85153;BME280;75520;43.358;19.362;2024-01-27T09:48:38;94130.53;;;5.02;65.87
85153;BME280;75520;43.358;19.362;2024-01-27T09:51:05;94134.22;;;5.01;66.37
85153;BME280;75520;43.358;19.362;2024-01-27T09:53:30;94124.47;;;5.02;67.46
85153;BME280;75520;43.358;19.362;2024-01-27T09:56:00;94131.88;;;5.00;65.38
85153;BME280;75520;43.358;19.362;2024-01-27T09:58:28;94130.03;;;4.95;68.84
85153;BME280;75520;43.358;19.362;2024-01-27T10:00:56;94078.06;;;4.62;68.63
85153;BME280;75520;43.358;19.362;2024-01-27T10:03:26;94121.22;;;4.61;67.51
85153;BME280;75520;43.358;19.362;2024-01-27T10:05:53;94115.94;;;4.61;70.22
85153;BME280;75520;43.358;19.362;2024-01-27T10:08:20;94117.75;;;4.75;71.04
85153;BME280;75520;43.358;19.362;2024-01-27T10:10:47;94101.34;;;4.94;71.97
85153;BME280;75520;43.358;19.362;2024-01-27T10:13:16;94081.06;;;5.04;69.93
85153;BME280;75520;43.358;19.362;2024-01-27T10:15:59;94085.94;;;5.26;69.09
85153;BME280;75520;43.358;19.362;2024-01-27T10:18:25;94078.25;;;5.35;71.80
85153;BME280;75520;43.358;19.362;2024-01-27T10:20:51;94088.31;;;5.28;70.30
85153;BME280;75520;43.358;19.362;2024-01-27T10:23:16;94070.03;;;5.41;67.74
85153;BME280;75520;43.358;19.362;2024-01-27T10:25:43;94061.56;;;5.49;68.26
85153;BME280;75520;43.358;19.362;2024-01-27T10:28:09;94060.34;;;5.37;68.36
85153;BME280;75520;43.358;19.362;2024-01-27T10:30:35;94057.47;;;5.33;68.02
85153;BME280;75520;43.358;19.362;2024-01-27T10:33:01;94049.97;;;5.50;68.08
85153;BME280;75520;43.358;19.362;2024-01-27T10:35:28;94051.41;;;5.72;67.55
85153;BME280;75520;43.358;19.362;2024-01-27T10:37:54;94053.03;;;6.02;66.60
85153;BME280;75520;43.358;19.362;2024-01-27T10:40:21;94040.91;;;6.01;57.81
85153;BME280;75520;43.358;19.362;2024-01-27T10:42:48;94040.22;;;6.19;62.29
85153;BME280;75520;43.358;19.362;2024-01-27T10:45:17;94014.06;;;6.46;65.93
85153;BME280;75520;43.358;19.362;2024-01-27T10:47:45;94029.53;;;7.19;64.76
85153;BME280;75520;43.358;19.362;2024-01-27T10:50:11;94042.59;;;7.29;61.81
85153;BME280;75520;43.358;19.362;2024-01-27T10:52:41;94016.53;;;7.23;57.66
85153;BME280;75520;43.358;19.362;2024-01-27T10:55:10;94012.31;;;7.40;61.59
85153;BME280;75520;43.358;19.362;2024-01-27T10:57:37;94013.78;;;7.65;62.60
85153;BME280;75520;43.358;19.362;2024-01-27T11:00:04;94014.31;;;7.81;60.36
85153;BME280;75520;43.358;19.362;2024-01-27T11:02:34;94009.63;;;7.78;60.61
85153;BME280;75520;43.358;19.362;2024-01-27T11:05:03;93997.22;;;7.92;58.59
85153;BME280;75520;43.358;19.362;2024-01-27T11:07:33;94006.84;;;7.69;50.06
85153;BME280;75520;43.358;19.362;2024-01-27T11:09:59;93993.59;;;7.88;60.10
85153;BME280;75520;43.358;19.362;2024-01-27T11:12:25;93993.22;;;8.08;55.60
85153;BME280;75520;43.358;19.362;2024-01-27T11:14:51;93976.31;;;8.23;58.55
85153;BME280;75520;43.358;19.362;2024-01-27T11:17:18;93947.50;;;8.08;56.52
85153;BME280;75520;43.358;19.362;2024-01-27T11:19:47;93984.28;;;8.50;54.49
85153;BME280;75520;43.358;19.362;2024-01-27T11:22:28;93990.06;;;8.80;48.45
85153;BME280;75520;43.358;19.362;2024-01-27T11:27:39;93970.00;;;9.37;55.69
85153;BME280;75520;43.358;19.362;2024-01-27T11:30:06;93952.13;;;9.20;55.07
85153;BME280;75520;43.358;19.362;2024-01-27T11:32:49;93980.81;;;9.41;54.63
85153;BME280;75520;43.358;19.362;2024-01-27T11:35:17;93945.34;;;9.50;52.10
85153;BME280;75520;43.358;19.362;2024-01-27T11:37:42;93961.59;;;9.80;53.93
85153;BME280;75520;43.358;19.362;2024-01-27T11:40:08;93981.63;;;9.94;52.69
85153;BME280;75520;43.358;19.362;2024-01-27T11:42:37;93965.03;;;9.80;52.48
85153;BME280;75520;43.358;19.362;2024-01-27T11:45:03;93977.44;;;10.02;51.56
85153;BME280;75520;43.358;19.362;2024-01-27T11:47:29;93969.22;;;9.81;51.60
85153;BME280;75520;43.358;19.362;2024-01-27T11:49:56;93933.44;;;9.03;48.03
85153;BME280;75520;43.358;19.362;2024-01-27T11:52:23;93969.75;;;9.61;51.23
85153;BME280;75520;43.358;19.362;2024-01-27T11:57:21;93961.59;;;10.11;50.65
85153;BME280;75520;43.358;19.362;2024-01-27T11:59:47;93959.13;;;10.45;51.38
85153;BME280;75520;43.358;19.362;2024-01-27T12:02:14;93961.59;;;11.07;49.53
85153;BME280;75520;43.358;19.362;2024-01-27T12:04:40;93958.47;;;11.65;48.48
85153;BME280;75520;43.358;19.362;2024-01-27T12:07:06;93959.13;;;11.36;49.47
85153;BME280;75520;43.358;19.362;2024-01-27T12:09:32;93962.53;;;10.94;47.70
85153;BME280;75520;43.358;19.362;2024-01-27T12:11:57;93924.13;;;10.12;42.75
85153;BME280;75520;43.358;19.362;2024-01-27T12:14:23;93930.13;;;10.66;48.94
85153;BME280;75520;43.358;19.362;2024-01-27T12:16:48;93953.13;;;10.96;48.80
85153;BME280;75520;43.358;19.362;2024-01-27T12:19:14;93948.19;;;11.29;49.33
85153;BME280;75520;43.358;19.362;2024-01-27T12:21:48;93936.91;;;11.06;41.44
85153;BME280;75520;43.358;19.362;2024-01-27T12:24:17;93936.59;;;11.08;43.01
85153;BME280;75520;43.358;19.362;2024-01-27T12:26:45;93940.31;;;10.81;48.21
85153;BME280;75520;43.358;19.362;2024-01-27T12:29:11;93907.94;;;10.70;48.43
85153;BME280;75520;43.358;19.362;2024-01-27T12:31:37;93927.81;;;10.73;46.88
85153;BME280;75520;43.358;19.362;2024-01-27T12:34:03;93932.53;;;10.85;47.68
85153;BME280;75520;43.358;19.362;2024-01-27T12:36:28;93897.56;;;10.34;45.93
85153;BME280;75520;43.358;19.362;2024-01-27T12:38:59;93886.50;;;10.10;43.39
85153;BME280;75520;43.358;19.362;2024-01-27T12:41:27;93907.44;;;10.43;44.35
85153;BME280;75520;43.358;19.362;2024-01-27T12:43:55;93917.69;;;11.01;47.12
85153;BME280;75520;43.358;19.362;2024-01-27T12:46:21;93891.13;;;11.09;46.65
85153;BME280;75520;43.358;19.362;2024-01-27T12:48:46;93906.28;;;11.00;44.08
85153;BME280;75520;43.358;19.362;2024-01-27T12:51:12;93901.38;;;10.76;44.70
85153;BME280;75520;43.358;19.362;2024-01-27T12:53:39;93912.34;;;10.75;43.37